sensor_id;sensor_type;location;lat;lon;timestamp;P1;durP1;ratioP1;P2;durP2;ratioP2
5414;SDS011;2730;51.512;7.504;2022-09-09T05:05:12;11.47;;;2.70;;
5414;SDS011;2730;51.512;7.504;2022-09-09T05:07:41;3.17;;;2.07;;
5414;SDS011;2730;51.512;7.504;2022-09-09T05:10:08;4.90;;;2.20;;
5414;SDS011;2730;51.512;7.504;2022-09-09T05:12:37;5.33;;;2.00;;
5414;SDS011;2730;51.512;7.504;2022-09-09T05:15:35;6.50;;;2.00;;
5414;SDS011;2730;51.512;7.504;2022-09-09T05:18:04;4.27;;;2.20;;
5414;SDS011;2730;51.512;7.504;2022-09-09T05:20:34;5.23;;;2.13;;
5414;SDS011;2730;51.512;7.504;2022-09-09T05:23:05;10.97;;;2.60;;
5414;SDS011;2730;51.512;7.504;2022-09-09T05:25:37;2.30;;;2.10;;
5414;SDS011;2730;51.512;7.504;2022-09-09T05:28:04;18.27;;;3.03;;
5414;SDS011;2730;51.512;7.504;2022-09-09T05:30:34;9.60;;;2.60;;
5414;SDS011;2730;51.512;7.504;2022-09-09T05:33:08;10.23;;;2.73;;
5414;SDS011;2730;51.512;7.504;2022-09-09T05:35:37;7.87;;;2.57;;
5414;SDS011;2730;51.512;7.504;2022-09-09T05:38:04;4.03;;;2.03;;
5414;SDS011;2730;51.512;7.504;2022-09-09T05:40:31;6.60;;;2.10;;
5414;SDS011;2730;51.512;7.504;2022-09-09T05:42:59;3.00;;;2.00;;
5414;SDS011;2730;51.512;7.504;2022-09-09T05:45:27;3.87;;;2.20;;
5414;SDS011;2730;51.512;7.504;2022-09-09T05:47:54;7.27;;;2.77;;
5414;SDS011;2730;51.512;7.504;2022-09-09T05:50:22;6.00;;;2.43;;
5414;SDS011;2730;51.512;7.504;2022-09-09T05:52:49;3.10;;;2.70;;
5414;SDS011;2730;51.512;7.504;2022-09-09T05:55:16;4.80;;;2.13;;
5414;SDS011;2730;51.512;7.504;2022-09-09T05:57:59;6.33;;;2.20;;
5414;SDS011;2730;51.512;7.504;2022-09-09T06:00:42;6.00;;;2.17;;
5414;SDS011;2730;51.512;7.504;2022-09-09T06:03:10;4.47;;;2.50;;
5414;SDS011;2730;51.512;7.504;2022-09-09T06:05:38;7.40;;;2.10;;
5414;SDS011;2730;51.512;7.504;2022-09-09T06:08:05;12.90;;;2.23;;
5414;SDS011;2730;51.512;7.504;2022-09-09T06:10:32;9.27;;;2.70;;
5414;SDS011;2730;51.512;7.504;2022-09-09T06:12:59;17.10;;;1.90;;
5414;SDS011;2730;51.512;7.504;2022-09-09T06:15:26;8.13;;;2.47;;
5414;SDS011;2730;51.512;7.504;2022-09-09T06:17:55;7.10;;;1.97;;
5414;SDS011;2730;51.512;7.504;2022-09-09T06:20:22;7.27;;;2.40;;
5414;SDS011;2730;51.512;7.504;2022-09-09T06:22:51;8.13;;;2.50;;
5414;SDS011;2730;51.512;7.504;2022-09-09T06:25:17;4.23;;;1.50;;
5414;SDS011;2730;51.512;7.504;2022-09-09T06:27:47;11.17;;;2.00;;
5414;SDS011;2730;51.512;7.504;2022-09-09T06:30:15;3.30;;;1.77;;
5414;SDS011;2730;51.512;7.504;2022-09-09T06:32:43;8.20;;;2.30;;
5414;SDS011;2730;51.512;7.504;2022-09-09T06:35:10;5.03;;;1.90;;
5414;SDS011;2730;51.512;7.504;2022-09-09T06:37:36;6.40;;;2.43;;
5414;SDS011;2730;51.512;7.504;2022-09-09T06:40:06;6.40;;;2.20;;
5414;SDS011;2730;51.512;7.504;2022-09-09T06:42:33;8.10;;;1.70;;
5414;SDS011;2730;51.512;7.504;2022-09-09T06:45:00;4.47;;;1.87;;
5414;SDS011;2730;51.512;7.504;2022-09-09T06:47:27;3.00;;;1.93;;
5414;SDS011;2730;51.512;7.504;2022-09-09T06:49:55;3.73;;;1.83;;
5414;SDS011;2730;51.512;7.504;2022-09-09T06:52:22;4.13;;;2.07;;
5414;SDS011;2730;51.512;7.504;2022-09-09T06:54:49;4.23;;;1.80;;
5414;SDS011;2730;51.512;7.504;2022-09-09T06:57:17;3.27;;;1.70;;
5414;SDS011;2730;51.512;7.504;2022-09-09T06:59:44;8.37;;;1.63;;
5414;SDS011;2730;51.512;7.504;2022-09-09T07:02:11;7.53;;;2.57;;
5414;SDS011;2730;51.512;7.504;2022-09-09T07:04:38;6.33;;;1.70;;
5414;SDS011;2730;51.512;7.504;2022-09-09T07:07:05;2.50;;;1.97;;
5414;SDS011;2730;51.512;7.504;2022-09-09T07:09:32;3.33;;;1.60;;
5414;SDS011;2730;51.512;7.504;2022-09-09T07:11:59;3.73;;;1.77;;
5414;SDS011;2730;51.512;7.504;2022-09-09T07:14:28;2.90;;;1.43;;
5414;SDS011;2730;51.512;7.504;2022-09-09T07:16:54;4.70;;;2.00;;
5414;SDS011;2730;51.512;7.504;2022-09-09T07:19:22;5.17;;;1.60;;
5414;SDS011;2730;51.512;7.504;2022-09-09T07:21:49;6.00;;;2.30;;
5414;SDS011;2730;51.512;7.504;2022-09-09T07:24:16;3.73;;;2.03;;
5414;SDS011;2730;51.512;7.504;2022-09-09T07:26:42;4.70;;;2.53;;
5414;SDS011;2730;51.512;7.504;2022-09-09T07:29:11;7.97;;;1.70;;
5414;SDS011;2730;51.512;7.504;2022-09-09T07:31:40;6.00;;;2.23;;
5414;SDS011;2730;51.512;7.504;2022-09-09T07:34:07;7.00;;;1.60;;
5414;SDS011;2730;51.512;7.504;2022-09-09T07:36:35;5.17;;;1.73;;
5414;SDS011;2730;51.512;7.504;2022-09-09T07:39:03;5.63;;;1.50;;
5414;SDS011;2730;51.512;7.504;2022-09-09T07:41:33;2.70;;;1.30;;
5414;SDS011;2730;51.512;7.504;2022-09-09T07:44:04;6.57;;;1.73;;
5414;SDS011;2730;51.512;7.504;2022-09-09T07:46:32;7.23;;;1.37;;
5414;SDS011;2730;51.512;7.504;2022-09-09T07:49:00;1.47;;;1.10;;
5414;SDS011;2730;51.512;7.504;2022-09-09T07:51:28;1.97;;;1.37;;
5414;SDS011;2730;51.512;7.504;2022-09-09T07:53:59;1.93;;;1.00;;
5414;SDS011;2730;51.512;7.504;2022-09-09T07:56:27;2.90;;;1.13;;
5414;SDS011;2730;51.512;7.504;2022-09-09T07:58:55;1.37;;;1.10;;
5414;SDS011;2730;51.512;7.504;2022-09-09T08:01:24;3.80;;;1.17;;
5414;SDS011;2730;51.512;7.504;2022-09-09T08:03:53;1.43;;;0.90;;
5414;SDS011;2730;51.512;7.504;2022-09-09T08:06:22;4.10;;;1.10;;
5414;SDS011;2730;51.512;7.504;2022-09-09T08:08:50;2.90;;;1.30;;
5414;SDS011;2730;51.512;7.504;2022-09-09T08:11:17;5.17;;;1.73;;
5414;SDS011;2730;51.512;7.504;2022-09-09T08:13:44;4.57;;;1.50;;
5414;SDS011;2730;51.512;7.504;2022-09-09T08:16:11;3.43;;;1.40;;
5414;SDS011;2730;51.512;7.504;2022-09-09T08:18:40;6.50;;;1.73;;
5414;SDS011;2730;51.512;7.504;2022-09-09T08:21:08;5.40;;;1.30;;
5414;SDS011;2730;51.512;7.504;2022-09-09T08:23:39;1.20;;;1.10;;
5414;SDS011;2730;51.512;7.504;2022-09-09T08:26:08;3.40;;;1.27;;
5414;SDS011;2730;51.512;7.504;2022-09-09T08:28:37;3.80;;;1.30;;
5414;SDS011;2730;51.512;7.504;2022-09-09T08:31:05;4.93;;;1.40;;
5414;SDS011;2730;51.512;7.504;2022-09-09T08:33:33;3.40;;;1.30;;
5414;SDS011;2730;51.512;7.504;2022-09-09T08:36:02;3.47;;;1.13;;
5414;SDS011;2730;51.512;7.504;2022-09-09T08:38:29;6.00;;;2.33;;
5414;SDS011;2730;51.512;7.504;2022-09-09T08:40:58;1.83;;;1.20;;
5414;SDS011;2730;51.512;7.504;2022-09-09T08:43:33;4.13;;;1.40;;
5414;SDS011;2730;51.512;7.504;2022-09-09T08:46:01;6.53;;;1.30;;
5414;SDS011;2730;51.512;7.504;2022-09-09T08:48:38;4.03;;;1.53;;
5414;SDS011;2730;51.512;7.504;2022-09-09T08:51:14;4.50;;;1.60;;
5414;SDS011;2730;51.512;7.504;2022-09-09T08:53:43;2.77;;;1.40;;
5414;SDS011;2730;51.512;7.504;2022-09-09T08:56:14;3.03;;;1.00;;
5414;SDS011;2730;51.512;7.504;2022-09-09T08:58:45;8.00;;;1.50;;
5414;SDS011;2730;51.512;7.504;2022-09-09T09:01:17;6.53;;;1.67;;
5414;SDS011;2730;51.512;7.504;2022-09-09T09:04:00;2.30;;;1.33;;
5414;SDS011;2730;51.512;7.504;2022-09-09T09:06:37;6.57;;;1.10;;
5414;SDS011;2730;51.512;7.504;2022-09-09T09:09:13;3.57;;;1.20;;
5414;SDS011;2730;51.512;7.504;2022-09-09T09:11:49;3.13;;;1.40;;
5414;SDS011;2730;51.512;7.504;2022-09-09T09:14:18;2.50;;;1.70;;
5414;SDS011;2730;51.512;7.504;2022-09-09T09:16:49;6.23;;;1.27;;
5414;SDS011;2730;51.512;7.504;2022-09-09T09:19:19;5.17;;;1.83;;
5414;SDS011;2730;51.512;7.504;2022-09-09T09:21:49;4.90;;;1.37;;
5414;SDS011;2730;51.512;7.504;2022-09-09T09:24:20;5.03;;;1.67;;
5414;SDS011;2730;51.512;7.504;2022-09-09T09:26:53;5.97;;;1.50;;
5414;SDS011;2730;51.512;7.504;2022-09-09T09:29:20;2.47;;;1.10;;
5414;SDS011;2730;51.512;7.504;2022-09-09T09:31:50;2.40;;;1.27;;
5414;SDS011;2730;51.512;7.504;2022-09-09T09:34:19;2.87;;;1.30;;
5414;SDS011;2730;51.512;7.504;2022-09-09T09:36:52;6.47;;;1.83;;
5414;SDS011;2730;51.512;7.504;2022-09-09T09:39:24;4.80;;;1.47;;
5414;SDS011;2730;51.512;7.504;2022-09-09T09:41:53;4.80;;;1.43;;
5414;SDS011;2730;51.512;7.504;2022-09-09T09:44:22;2.00;;;1.30;;
5414;SDS011;2730;51.512;7.504;2022-09-09T09:46:51;2.30;;;1.63;;
5414;SDS011;2730;51.512;7.504;2022-09-09T09:49:19;1.50;;;1.30;;
5414;SDS011;2730;51.512;7.504;2022-09-09T09:51:45;5.00;;;1.80;;
5414;SDS011;2730;51.512;7.504;2022-09-09T09:54:15;3.57;;;1.20;;
5414;SDS011;2730;51.512;7.504;2022-09-09T09:56:48;6.50;;;1.50;;
5414;SDS011;2730;51.512;7.504;2022-09-09T09:59:23;3.77;;;1.37;;
5414;SDS011;2730;51.512;7.504;2022-09-09T10:02:06;6.70;;;1.50;;
5414;SDS011;2730;51.512;7.504;2022-09-09T10:04:44;7.27;;;2.13;;
5414;SDS011;2730;51.512;7.504;2022-09-09T10:07:12;7.80;;;1.50;;
5414;SDS011;2730;51.512;7.504;2022-09-09T10:09:39;3.33;;;1.77;;
5414;SDS011;2730;51.512;7.504;2022-09-09T10:12:09;4.03;;;1.40;;
5414;SDS011;2730;51.512;7.504;2022-09-09T10:14:48;4.90;;;1.50;;
5414;SDS011;2730;51.512;7.504;2022-09-09T10:17:25;3.97;;;1.50;;
5414;SDS011;2730;51.512;7.504;2022-09-09T10:20:04;4.30;;;1.50;;
5414;SDS011;2730;51.512;7.504;2022-09-09T10:22:44;2.70;;;1.50;;
5414;SDS011;2730;51.512;7.504;2022-09-09T10:25:25;1.63;;;1.17;;
5414;SDS011;2730;51.512;7.504;2022-09-09T10:28:12;2.83;;;1.00;;
5414;SDS011;2730;51.512;7.504;2022-09-09T10:30:51;3.60;;;1.40;;
5414;SDS011;2730;51.512;7.504;2022-09-09T10:33:26;4.20;;;1.23;;
5414;SDS011;2730;51.512;7.504;2022-09-09T10:36:00;2.80;;;1.57;;
5414;SDS011;2730;51.512;7.504;2022-09-09T10:38:38;5.17;;;1.80;;
5414;SDS011;2730;51.512;7.504;2022-09-09T10:41:13;3.57;;;1.50;;
5414;SDS011;2730;51.512;7.504;2022-09-09T10:46:40;7.37;;;1.20;;
5414;SDS011;2730;51.512;7.504;2022-09-09T10:49:20;3.17;;;1.10;;
5414;SDS011;2730;51.512;7.504;2022-09-09T10:52:00;1.43;;;1.27;;
5414;SDS011;2730;51.512;7.504;2022-09-09T10:54:39;5.40;;;1.30;;
5414;SDS011;2730;51.512;7.504;2022-09-09T10:57:17;1.20;;;1.10;;
5414;SDS011;2730;51.512;7.504;2022-09-09T10:59:55;1.27;;;1.00;;
5414;SDS011;2730;51.512;7.504;2022-09-09T11:02:26;2.90;;;1.10;;
5414;SDS011;2730;51.512;7.504;2022-09-09T11:04:55;1.60;;;1.07;;
5414;SDS011;2730;51.512;7.504;2022-09-09T11:07:28;10.30;;;1.60;;
5414;SDS011;2730;51.512;7.504;2022-09-09T11:10:02;3.40;;;1.40;;
5414;SDS011;2730;51.512;7.504;2022-09-09T11:12:32;2.93;;;1.20;;
5414;SDS011;2730;51.512;7.504;2022-09-09T11:15:06;1.20;;;1.10;;
5414;SDS011;2730;51.512;7.504;2022-09-09T11:17:43;5.03;;;1.33;;
5414;SDS011;2730;51.512;7.504;2022-09-09T11:20:15;2.17;;;1.20;;
5414;SDS011;2730;51.512;7.504;2022-09-09T11:22:44;6.87;;;1.50;;
5414;SDS011;2730;51.512;7.504;2022-09-09T11:25:17;3.40;;;1.20;;
5414;SDS011;2730;51.512;7.504;2022-09-09T11:27:54;3.00;;;1.30;;
5414;SDS011;2730;51.512;7.504;2022-09-09T11:30:43;2.30;;;1.40;;
5414;SDS011;2730;51.512;7.504;2022-09-09T11:33:31;4.73;;;1.40;;
5414;SDS011;2730;51.512;7.504;2022-09-09T11:39:30;2.90;;;1.30;;
5414;SDS011;2730;51.512;7.504;2022-09-09T11:44:43;0.87;;;0.87;;
5414;SDS011;2730;51.512;7.504;2022-09-09T11:47:16;2.10;;;0.90;;
5414;SDS011;2730;51.512;7.504;2022-09-09T11:49:51;1.57;;;1.00;;
5414;SDS011;2730;51.512;7.504;2022-09-09T11:52:22;2.80;;;1.40;;
5414;SDS011;2730;51.512;7.504;2022-09-09T11:54:51;1.77;;;1.00;;
5414;SDS011;2730;51.512;7.504;2022-09-09T11:57:25;1.30;;;1.10;;
5414;SDS011;2730;51.512;7.504;2022-09-09T11:59:56;2.17;;;1.10;;
5414;SDS011;2730;51.512;7.504;2022-09-09T12:02:24;1.30;;;0.90;;
5414;SDS011;2730;51.512;7.504;2022-09-09T12:04:57;1.17;;;1.07;;
5414;SDS011;2730;51.512;7.504;2022-09-09T12:07:30;2.20;;;0.90;;
5414;SDS011;2730;51.512;7.504;2022-09-09T12:10:02;2.70;;;1.43;;
5414;SDS011;2730;51.512;7.504;2022-09-09T12:12:33;1.70;;;1.00;;
5414;SDS011;2730;51.512;7.504;2022-09-09T12:15:21;2.70;;;1.43;;
5414;SDS011;2730;51.512;7.504;2022-09-09T12:17:53;2.00;;;1.00;;
5414;SDS011;2730;51.512;7.504;2022-09-09T12:20:23;1.67;;;1.10;;
5414;SDS011;2730;51.512;7.504;2022-09-09T12:23:00;2.50;;;1.20;;
5414;SDS011;2730;51.512;7.504;2022-09-09T12:25:51;2.50;;;1.00;;
5414;SDS011;2730;51.512;7.504;2022-09-09T12:28:25;1.63;;;0.90;;
5414;SDS011;2730;51.512;7.504;2022-09-09T12:31:06;3.70;;;1.13;;
5414;SDS011;2730;51.512;7.504;2022-09-09T12:33:42;2.37;;;1.27;;
5414;SDS011;2730;51.512;7.504;2022-09-09T12:36:14;3.03;;;1.13;;
5414;SDS011;2730;51.512;7.504;2022-09-09T12:38:44;2.10;;;1.07;;
5414;SDS011;2730;51.512;7.504;2022-09-09T12:41:18;1.90;;;1.20;;
5414;SDS011;2730;51.512;7.504;2022-09-09T12:43:46;2.63;;;1.37;;
5414;SDS011;2730;51.512;7.504;2022-09-09T12:46:16;3.57;;;1.03;;
5414;SDS011;2730;51.512;7.504;2022-09-09T12:48:48;4.20;;;1.37;;
5414;SDS011;2730;51.512;7.504;2022-09-09T12:51:18;1.60;;;1.30;;
5414;SDS011;2730;51.512;7.504;2022-09-09T12:53:50;2.80;;;1.17;;
5414;SDS011;2730;51.512;7.504;2022-09-09T12:56:18;1.73;;;1.23;;
5414;SDS011;2730;51.512;7.504;2022-09-09T12:58:47;2.80;;;1.30;;
5414;SDS011;2730;51.512;7.504;2022-09-09T13:01:18;1.30;;;1.20;;
5414;SDS011;2730;51.512;7.504;2022-09-09T13:03:48;3.20;;;1.53;;
5414;SDS011;2730;51.512;7.504;2022-09-09T13:06:19;1.93;;;1.40;;
5414;SDS011;2730;51.512;7.504;2022-09-09T13:08:48;1.87;;;1.20;;
5414;SDS011;2730;51.512;7.504;2022-09-09T13:11:16;3.27;;;1.37;;
5414;SDS011;2730;51.512;7.504;2022-09-09T13:13:50;2.30;;;1.47;;
5414;SDS011;2730;51.512;7.504;2022-09-09T13:16:19;3.60;;;1.33;;
5414;SDS011;2730;51.512;7.504;2022-09-09T13:18:47;1.50;;;1.23;;
5414;SDS011;2730;51.512;7.504;2022-09-09T13:21:15;8.40;;;2.93;;
5414;SDS011;2730;51.512;7.504;2022-09-09T13:23:48;6.13;;;1.50;;
5414;SDS011;2730;51.512;7.504;2022-09-09T13:26:20;3.77;;;1.50;;
5414;SDS011;2730;51.512;7.504;2022-09-09T13:28:48;4.00;;;1.77;;
5414;SDS011;2730;51.512;7.504;2022-09-09T13:31:20;6.93;;;1.70;;
5414;SDS011;2730;51.512;7.504;2022-09-09T13:33:48;2.80;;;1.37;;
5414;SDS011;2730;51.512;7.504;2022-09-09T13:36:14;2.10;;;1.20;;
5414;SDS011;2730;51.512;7.504;2022-09-09T13:38:54;6.30;;;1.23;;
5414;SDS011;2730;51.512;7.504;2022-09-09T13:41:25;2.70;;;2.00;;
5414;SDS011;2730;51.512;7.504;2022-09-09T13:43:56;2.23;;;1.30;;
5414;SDS011;2730;51.512;7.504;2022-09-09T13:46:34;2.00;;;1.10;;
5414;SDS011;2730;51.512;7.504;2022-09-09T13:49:02;1.70;;;1.60;;
5414;SDS011;2730;51.512;7.504;2022-09-09T13:51:46;2.00;;;1.20;;
5414;SDS011;2730;51.512;7.504;2022-09-09T13:54:15;4.10;;;1.30;;
5414;SDS011;2730;51.512;7.504;2022-09-09T13:56:44;10.20;;;2.20;;
5414;SDS011;2730;51.512;7.504;2022-09-09T13:59:12;2.27;;;1.30;;
5414;SDS011;2730;51.512;7.504;2022-09-09T14:01:40;3.07;;;1.37;;
5414;SDS011;2730;51.512;7.504;2022-09-09T14:04:07;2.57;;;1.30;;
5414;SDS011;2730;51.512;7.504;2022-09-09T14:06:35;1.63;;;1.10;;
5414;SDS011;2730;51.512;7.504;2022-09-09T14:09:04;2.93;;;1.20;;
5414;SDS011;2730;51.512;7.504;2022-09-09T14:11:32;3.43;;;1.70;;
5414;SDS011;2730;51.512;7.504;2022-09-09T14:13:59;2.77;;;1.20;;
5414;SDS011;2730;51.512;7.504;2022-09-09T14:16:26;3.43;;;1.10;;
5414;SDS011;2730;51.512;7.504;2022-09-09T14:18:54;2.97;;;1.50;;
5414;SDS011;2730;51.512;7.504;2022-09-09T14:21:22;3.17;;;1.37;;
5414;SDS011;2730;51.512;7.504;2022-09-09T14:23:49;8.50;;;1.20;;
5414;SDS011;2730;51.512;7.504;2022-09-09T14:26:16;2.17;;;1.20;;
5414;SDS011;2730;51.512;7.504;2022-09-09T14:28:45;2.23;;;1.70;;
5414;SDS011;2730;51.512;7.504;2022-09-09T14:31:12;1.27;;;1.17;;
5414;SDS011;2730;51.512;7.504;2022-09-09T14:33:39;3.10;;;1.40;;
5414;SDS011;2730;51.512;7.504;2022-09-09T14:36:06;1.83;;;1.10;;
5414;SDS011;2730;51.512;7.504;2022-09-09T14:38:33;4.20;;;1.23;;
5414;SDS011;2730;51.512;7.504;2022-09-09T14:41:04;1.50;;;1.40;;
5414;SDS011;2730;51.512;7.504;2022-09-09T14:43:31;2.73;;;1.30;;
5414;SDS011;2730;51.512;7.504;2022-09-09T14:46:05;1.90;;;1.00;;
5414;SDS011;2730;51.512;7.504;2022-09-09T14:48:32;1.47;;;1.13;;
5414;SDS011;2730;51.512;7.504;2022-09-09T14:51:04;1.17;;;1.07;;
5414;SDS011;2730;51.512;7.504;2022-09-09T14:53:31;1.73;;;1.10;;
5414;SDS011;2730;51.512;7.504;2022-09-09T14:56:02;3.63;;;1.33;;
5414;SDS011;2730;51.512;7.504;2022-09-09T14:58:34;5.70;;;1.43;;
5414;SDS011;2730;51.512;7.504;2022-09-09T15:01:02;2.27;;;1.30;;
5414;SDS011;2730;51.512;7.504;2022-09-09T15:03:31;4.80;;;1.33;;
5414;SDS011;2730;51.512;7.504;2022-09-09T15:06:04;5.47;;;1.10;;
5414;SDS011;2730;51.512;7.504;2022-09-09T15:08:31;4.03;;;1.30;;
5414;SDS011;2730;51.512;7.504;2022-09-09T15:10:58;2.90;;;1.30;;
5414;SDS011;2730;51.512;7.504;2022-09-09T15:13:26;1.83;;;1.30;;
5414;SDS011;2730;51.512;7.504;2022-09-09T15:15:53;7.30;;;1.73;;
5414;SDS011;2730;51.512;7.504;2022-09-09T15:18:21;2.20;;;1.13;;
5414;SDS011;2730;51.512;7.504;2022-09-09T15:20:48;2.90;;;1.30;;
5414;SDS011;2730;51.512;7.504;2022-09-09T15:23:16;1.53;;;1.30;;
5414;SDS011;2730;51.512;7.504;2022-09-09T15:25:52;2.90;;;1.23;;
5414;SDS011;2730;51.512;7.504;2022-09-09T15:28:20;2.00;;;1.10;;
5414;SDS011;2730;51.512;7.504;2022-09-09T15:30:48;1.47;;;1.10;;
5414;SDS011;2730;51.512;7.504;2022-09-09T15:33:16;4.00;;;1.47;;
5414;SDS011;2730;51.512;7.504;2022-09-09T15:35:45;1.77;;;1.50;;
5414;SDS011;2730;51.512;7.504;2022-09-09T15:38:12;3.23;;;1.53;;
5414;SDS011;2730;51.512;7.504;2022-09-09T15:40:41;2.13;;;1.40;;
5414;SDS011;2730;51.512;7.504;2022-09-09T15:43:08;3.23;;;1.53;;
5414;SDS011;2730;51.512;7.504;2022-09-09T15:45:35;1.80;;;1.10;;
5414;SDS011;2730;51.512;7.504;2022-09-09T15:48:03;3.57;;;1.17;;
5414;SDS011;2730;51.512;7.504;2022-09-09T15:50:30;4.70;;;1.70;;
5414;SDS011;2730;51.512;7.504;2022-09-09T15:52:59;6.43;;;2.00;;
5414;SDS011;2730;51.512;7.504;2022-09-09T15:55:26;1.97;;;1.20;;
5414;SDS011;2730;51.512;7.504;2022-09-09T15:57:52;4.00;;;1.50;;
5414;SDS011;2730;51.512;7.504;2022-09-09T16:00:20;3.20;;;1.10;;
5414;SDS011;2730;51.512;7.504;2022-09-09T16:02:47;1.47;;;1.10;;
5414;SDS011;2730;51.512;7.504;2022-09-09T16:05:15;1.77;;;1.00;;
5414;SDS011;2730;51.512;7.504;2022-09-09T16:07:42;7.50;;;1.10;;
5414;SDS011;2730;51.512;7.504;2022-09-09T16:10:11;3.17;;;1.10;;
5414;SDS011;2730;51.512;7.504;2022-09-09T16:12:38;1.93;;;1.03;;
5414;SDS011;2730;51.512;7.504;2022-09-09T16:15:06;2.93;;;1.20;;
5414;SDS011;2730;51.512;7.504;2022-09-09T16:20:29;2.00;;;1.30;;
5414;SDS011;2730;51.512;7.504;2022-09-09T16:22:56;1.63;;;1.23;;
5414;SDS011;2730;51.512;7.504;2022-09-09T16:28:51;2.00;;;0.90;;
5414;SDS011;2730;51.512;7.504;2022-09-09T16:31:19;1.60;;;1.10;;
5414;SDS011;2730;51.512;7.504;2022-09-09T16:34:00;2.57;;;1.47;;
5414;SDS011;2730;51.512;7.504;2022-09-09T16:36:29;1.83;;;1.27;;
5414;SDS011;2730;51.512;7.504;2022-09-09T16:38:59;1.50;;;1.30;;
5414;SDS011;2730;51.512;7.504;2022-09-09T16:41:29;3.07;;;1.20;;
5414;SDS011;2730;51.512;7.504;2022-09-09T16:44:06;1.77;;;1.33;;
5414;SDS011;2730;51.512;7.504;2022-09-09T16:47:03;2.40;;;1.20;;
5414;SDS011;2730;51.512;7.504;2022-09-09T16:49:30;1.77;;;1.63;;
5414;SDS011;2730;51.512;7.504;2022-09-09T16:52:06;1.47;;;1.30;;
5414;SDS011;2730;51.512;7.504;2022-09-09T16:54:37;1.90;;;1.30;;
5414;SDS011;2730;51.512;7.504;2022-09-09T16:57:09;2.20;;;1.00;;
5414;SDS011;2730;51.512;7.504;2022-09-09T16:59:44;1.50;;;1.40;;
5414;SDS011;2730;51.512;7.504;2022-09-09T17:02:27;2.93;;;1.00;;
5414;SDS011;2730;51.512;7.504;2022-09-09T17:05:52;2.00;;;1.30;;
5414;SDS011;2730;51.512;7.504;2022-09-09T17:08:36;3.33;;;1.43;;
5414;SDS011;2730;51.512;7.504;2022-09-09T17:11:13;2.50;;;1.30;;
5414;SDS011;2730;51.512;7.504;2022-09-09T17:16:45;1.33;;;1.23;;
5414;SDS011;2730;51.512;7.504;2022-09-09T17:19:11;1.50;;;1.40;;
5414;SDS011;2730;51.512;7.504;2022-09-09T17:21:39;7.57;;;1.43;;
5414;SDS011;2730;51.512;7.504;2022-09-09T17:24:06;1.97;;;1.20;;
5414;SDS011;2730;51.512;7.504;2022-09-09T17:26:38;2.47;;;1.63;;
5414;SDS011;2730;51.512;7.504;2022-09-09T17:29:09;1.43;;;1.33;;
5414;SDS011;2730;51.512;7.504;2022-09-09T17:31:40;1.93;;;1.40;;
5414;SDS011;2730;51.512;7.504;2022-09-09T17:34:31;3.57;;;1.17;;
5414;SDS011;2730;51.512;7.504;2022-09-09T17:37:03;6.60;;;1.83;;
5414;SDS011;2730;51.512;7.504;2022-09-09T17:39:33;2.73;;;1.43;;
5414;SDS011;2730;51.512;7.504;2022-09-09T17:42:00;2.17;;;1.60;;
5414;SDS011;2730;51.512;7.504;2022-09-09T17:44:27;3.00;;;1.70;;
5414;SDS011;2730;51.512;7.504;2022-09-09T17:46:57;2.10;;;1.70;;
5414;SDS011;2730;51.512;7.504;2022-09-09T17:49:24;2.33;;;2.00;;
5414;SDS011;2730;51.512;7.504;2022-09-09T17:51:52;5.03;;;2.33;;
5414;SDS011;2730;51.512;7.504;2022-09-09T17:54:21;3.30;;;2.20;;
5414;SDS011;2730;51.512;7.504;2022-09-09T17:56:48;6.20;;;2.07;;
5414;SDS011;2730;51.512;7.504;2022-09-09T17:59:16;3.40;;;1.70;;
5414;SDS011;2730;51.512;7.504;2022-09-09T18:01:44;6.60;;;1.90;;
5414;SDS011;2730;51.512;7.504;2022-09-09T18:04:15;5.83;;;2.10;;
5414;SDS011;2730;51.512;7.504;2022-09-09T18:06:47;2.23;;;2.07;;
5414;SDS011;2730;51.512;7.504;2022-09-09T18:09:20;6.00;;;2.07;;
5414;SDS011;2730;51.512;7.504;2022-09-09T18:11:51;2.67;;;2.37;;
5414;SDS011;2730;51.512;7.504;2022-09-09T18:14:21;3.00;;;2.37;;
5414;SDS011;2730;51.512;7.504;2022-09-09T18:16:49;1.93;;;1.83;;
5414;SDS011;2730;51.512;7.504;2022-09-09T18:19:21;4.43;;;1.60;;
5414;SDS011;2730;51.512;7.504;2022-09-09T18:21:49;6.27;;;1.97;;
5414;SDS011;2730;51.512;7.504;2022-09-09T18:24:17;1.80;;;1.70;;
5414;SDS011;2730;51.512;7.504;2022-09-09T18:26:47;3.13;;;2.20;;
5414;SDS011;2730;51.512;7.504;2022-09-09T18:29:15;4.00;;;1.93;;
5414;SDS011;2730;51.512;7.504;2022-09-09T18:31:44;4.03;;;1.97;;
5414;SDS011;2730;51.512;7.504;2022-09-09T18:34:13;2.50;;;1.90;;
5414;SDS011;2730;51.512;7.504;2022-09-09T18:36:43;3.93;;;2.40;;
5414;SDS011;2730;51.512;7.504;2022-09-09T18:39:11;11.57;;;2.40;;
5414;SDS011;2730;51.512;7.504;2022-09-09T18:41:41;3.23;;;2.10;;
5414;SDS011;2730;51.512;7.504;2022-09-09T18:44:09;3.03;;;1.90;;
5414;SDS011;2730;51.512;7.504;2022-09-09T18:46:38;4.43;;;2.20;;
5414;SDS011;2730;51.512;7.504;2022-09-09T18:49:06;2.53;;;1.70;;
5414;SDS011;2730;51.512;7.504;2022-09-09T18:51:35;2.60;;;1.60;;
5414;SDS011;2730;51.512;7.504;2022-09-09T18:54:05;2.00;;;1.77;;
5414;SDS011;2730;51.512;7.504;2022-09-09T18:56:34;2.23;;;1.80;;
5414;SDS011;2730;51.512;7.504;2022-09-09T18:59:03;4.20;;;1.93;;
5414;SDS011;2730;51.512;7.504;2022-09-09T19:01:32;1.53;;;1.43;;
5414;SDS011;2730;51.512;7.504;2022-09-09T19:04:00;2.27;;;1.60;;
5414;SDS011;2730;51.512;7.504;2022-09-09T19:06:28;1.97;;;1.60;;
5414;SDS011;2730;51.512;7.504;2022-09-09T19:08:56;1.80;;;1.50;;
5414;SDS011;2730;51.512;7.504;2022-09-09T19:11:23;5.30;;;2.70;;
5414;SDS011;2730;51.512;7.504;2022-09-09T19:13:52;4.50;;;2.20;;
5414;SDS011;2730;51.512;7.504;2022-09-09T19:16:22;2.00;;;1.73;;
5414;SDS011;2730;51.512;7.504;2022-09-09T19:18:50;6.93;;;1.90;;
5414;SDS011;2730;51.512;7.504;2022-09-09T19:21:17;2.57;;;1.90;;
5414;SDS011;2730;51.512;7.504;2022-09-09T19:23:47;5.93;;;2.03;;
5414;SDS011;2730;51.512;7.504;2022-09-09T19:26:15;2.30;;;1.87;;
5414;SDS011;2730;51.512;7.504;2022-09-09T19:28:42;8.00;;;2.10;;
5414;SDS011;2730;51.512;7.504;2022-09-09T19:31:11;5.00;;;2.50;;
5414;SDS011;2730;51.512;7.504;2022-09-09T19:33:41;2.47;;;1.80;;
5414;SDS011;2730;51.512;7.504;2022-09-09T19:36:10;3.23;;;2.60;;
5414;SDS011;2730;51.512;7.504;2022-09-09T19:38:37;2.37;;;2.17;;
5414;SDS011;2730;51.512;7.504;2022-09-09T19:41:06;2.57;;;2.10;;
5414;SDS011;2730;51.512;7.504;2022-09-09T19:43:34;3.70;;;2.03;;
5414;SDS011;2730;51.512;7.504;2022-09-09T19:46:03;3.00;;;2.23;;
5414;SDS011;2730;51.512;7.504;2022-09-09T19:48:32;7.03;;;1.80;;
5414;SDS011;2730;51.512;7.504;2022-09-09T19:51:04;1.70;;;1.60;;
5414;SDS011;2730;51.512;7.504;2022-09-09T19:53:34;1.70;;;1.60;;
5414;SDS011;2730;51.512;7.504;2022-09-09T19:56:02;1.80;;;1.47;;
5414;SDS011;2730;51.512;7.504;2022-09-09T19:58:30;1.60;;;1.50;;
5414;SDS011;2730;51.512;7.504;2022-09-09T20:01:03;4.60;;;1.70;;
5414;SDS011;2730;51.512;7.504;2022-09-09T20:03:31;3.00;;;1.63;;
5414;SDS011;2730;51.512;7.504;2022-09-09T20:05:58;5.17;;;1.93;;
5414;SDS011;2730;51.512;7.504;2022-09-09T20:08:26;4.87;;;2.30;;
5414;SDS011;2730;51.512;7.504;2022-09-09T20:10:53;3.70;;;1.83;;
5414;SDS011;2730;51.512;7.504;2022-09-09T20:13:20;2.07;;;1.87;;
5414;SDS011;2730;51.512;7.504;2022-09-09T20:15:54;2.40;;;1.50;;
5414;SDS011;2730;51.512;7.504;2022-09-09T20:18:26;3.20;;;1.60;;
5414;SDS011;2730;51.512;7.504;2022-09-09T20:20:55;2.40;;;1.50;;
5414;SDS011;2730;51.512;7.504;2022-09-09T20:23:23;2.90;;;1.83;;
5414;SDS011;2730;51.512;7.504;2022-09-09T20:25:52;5.00;;;1.87;;
5414;SDS011;2730;51.512;7.504;2022-09-09T20:28:19;5.60;;;2.43;;
5414;SDS011;2730;51.512;7.504;2022-09-09T20:30:46;3.70;;;2.00;;
5414;SDS011;2730;51.512;7.504;2022-09-09T20:33:15;2.97;;;2.03;;
5414;SDS011;2730;51.512;7.504;2022-09-09T20:35:42;3.30;;;1.67;;
5414;SDS011;2730;51.512;7.504;2022-09-09T20:38:08;8.30;;;1.77;;
5414;SDS011;2730;51.512;7.504;2022-09-09T20:40:37;5.23;;;1.70;;
5414;SDS011;2730;51.512;7.504;2022-09-09T20:43:04;3.87;;;1.87;;
5414;SDS011;2730;51.512;7.504;2022-09-09T20:45:34;3.07;;;1.90;;
5414;SDS011;2730;51.512;7.504;2022-09-09T20:48:02;3.23;;;1.87;;
5414;SDS011;2730;51.512;7.504;2022-09-09T20:50:29;6.67;;;3.10;;
5414;SDS011;2730;51.512;7.504;2022-09-09T20:52:56;2.00;;;1.90;;
5414;SDS011;2730;51.512;7.504;2022-09-09T20:55:23;5.63;;;1.97;;
5414;SDS011;2730;51.512;7.504;2022-09-09T20:57:52;4.20;;;2.17;;